Latest Weather Observations for Camooweal

IDD60801

Issued at 7:35 pm CST Wednesday 1 October 2014 (issued every 30 minutes, with the page automatically refreshed every 10 minutes)

About weather observations | Map of weather stations | Latest weather observations for NT | Other Formats
Station Details ID: 037010 Name: CAMOOWEAL TOWNSHIP Lat: -19.92 Lon: 138.12 Height: 231.2 m
Data from the previous 72 hours. | See also: Recent months at Camooweal
Date/Time
CST
Temp
°C
App
Temp
°C
Dew
Point
Rel
Hum
%
Delta-T
°C
Wind Press
QNH
hPa
Press
MSL
hPa
Rain
since 9 am
mm
Dir
 
Spd
km/h
Gust
km/h
Spd
kts
Gust
kts
01/07:30pm 30.9 26.7 -0.7 13 15.2 ESE 11 13 6 7 1013.3 1011.9 0.0
01/07:00pm 32.1 27.9 -0.9 12 15.9 ESE 11 15 6 8 1012.9 1011.5 0.0
01/06:30pm 34.8 29.2 0.0 11 17.3 SE 19 24 10 13 1012.5 1011.1 0.0
01/06:00pm 35.9 30.0 -0.5 10 18.1 SSE 20 26 11 14 1012.2 1010.8 0.0
01/05:30pm 36.7 30.6 0.1 10 18.5 ESE 22 33 12 18 1012.1 1010.6 0.0
01/05:00pm 37.4 31.7 0.7 10 18.8 ESE 20 30 11 16 1012.0 1010.5 0.0
01/04:30pm 37.9 31.5 1.0 10 19.0 SE 24 35 13 19 1012.0 1010.5 0.0
01/04:00pm 38.2 32.2 1.3 10 19.2 SSE 22 30 12 16 1011.8 1010.3 0.0
01/03:30pm 38.2 30.1 1.3 10 19.2 SE 33 43 18 23 1012.0 1010.5 0.0
01/03:00pm 38.1 31.7 1.2 10 19.1 SE 24 43 13 23 1012.2 1010.8 0.0
01/02:30pm 38.0 32.0 1.1 10 19.1 SE 22 35 12 19 1012.6 1011.2 0.0
01/02:00pm 38.8 32.1 1.7 10 19.4 SSE 26 41 14 22 1013.2 1011.8 0.0
01/01:30pm 38.4 32.3 2.8 11 18.9 E 24 39 13 21 1013.6 1012.2 0.0
01/01:00pm 38.1 32.8 4.9 13 18.2 E 22 41 12 22 1014.2 1012.8 0.0
01/12:30pm 36.5 33.5 7.5 17 16.4 E 13 24 7 13 1014.8 1013.4 0.0
01/12:00pm 36.2 32.4 9.7 20 15.5 ENE 20 37 11 20 1015.5 1014.0 0.0
01/11:30am 34.3 32.1 9.5 22 14.3 SE 11 22 6 12 1016.0 1014.5 0.0
01/11:00am 34.4 31.9 9.6 22 14.4 ENE 13 20 7 11 1016.7 1015.3 0.0
01/10:30am 33.3 31.4 10.6 25 13.3 ENE 11 19 6 10 1017.1 1015.7 0.0
01/10:00am 32.2 30.3 11.9 29 12.1 E 13 19 7 10 1017.4 1016.0 0.0
01/09:30am 31.0 31.2 14.6 37 10.1 ESE 7 13 4 7 1017.5 1016.1 0.0
01/09:00am 29.6 30.6 16.4 45 8.3 SW 6 9 3 5 1017.6 1016.6 0.0
01/08:30am 28.4 29.7 17.6 52 6.9 WSW 7 13 4 7 1017.4 1016.4 0.0
01/08:00am 26.7 27.6 17.5 57 5.8 W 9 15 5 8 1017.1 1016.0 0.0
01/07:30am 25.0 26.5 18.0 65 4.4 WNW 7 13 4 7 1016.7 1015.6 0.0
01/07:00am 22.4 24.4 16.0 67 3.9 CALM 0 0 0 0 1016.3 1015.2 0.0
01/06:30am 22.0 22.7 15.6 67 3.9 N 6 7 3 4 1015.9 1014.8 0.0
01/06:00am 22.2 22.7 16.5 70 3.5 NNE 9 11 5 6 1015.4 1014.3 0.0
01/05:30am 21.8 22.2 15.2 66 4.0 NNE 7 9 4 5 1015.2 1014.1 0.0
01/05:00am 22.4 23.1 15.7 66 4.1 NE 6 7 3 4 1014.8 1013.8 0.0
01/04:30am 22.4 22.9 15.0 63 4.4 NE 6 9 3 5 1014.4 1013.4 0.0
01/04:00am 23.1 23.4 14.9 60 4.9 N 7 7 4 4 1014.1 1013.1 0.0
01/03:30am 23.6 24.2 15.4 60 5.0 N 6 7 3 4 1013.8 1012.8 0.0
01/03:00am 24.4 25.0 15.3 57 5.5 N 6 9 3 5 1013.7 1012.7 0.0
01/02:30am 25.0 24.9 15.0 53 6.1 NNE 9 11 5 6 1013.8 1012.8 0.0
01/02:00am 25.4 25.5 14.5 51 6.6 N 7 9 4 5 1013.9 1012.9 0.0
01/01:30am 26.1 25.9 14.6 49 6.9 N 9 13 5 7 1014.0 1013.0 0.0
01/01:00am 26.7 25.9 14.1 46 7.6 N 11 17 6 9 1014.1 1013.1 0.0
01/12:30am 27.6 25.9 12.4 39 8.9 N 13 17 7 9 1014.2 1013.2 0.0
01/12:00am 28.4 25.8 11.9 36 9.6 NNE 17 24 9 13 1014.3 1013.3 0.0
 
Date/Time
CST
Temp
°C
App
Temp
°C
Dew
Point
Rel
Hum
%
Delta-T
°C
Wind Press
QNH
hPa
Press
MSL
hPa
Rain
since 9 am
mm
Dir
 
Spd
km/h
Gust
km/h
Spd
kts
Gust
kts
30/11:30pm 27.7 25.8 10.4 34 9.8 NE 11 13 6 7 1014.2 1013.2 0.0
30/11:00pm 28.2 26.7 10.4 33 10.1 NE 9 11 5 6 1014.3 1013.3 0.0
30/10:30pm 28.6 26.8 10.8 33 10.2 NE 11 13 6 7 1014.2 1013.2 0.0
30/10:00pm 29.4 27.6 11.0 32 10.6 NNE 11 13 6 7 1014.2 1013.2 0.0
30/09:30pm 28.0 26.7 9.3 31 10.5 NNE 6 9 3 5 1014.1 1013.1 0.0
30/09:00pm 29.9 29.1 10.9 31 11.0 N 6 7 3 4 1013.9 1012.9 0.0
30/08:30pm 30.7 29.4 11.1 30 11.4 NNE 9 11 5 6 1013.8 1012.8 0.0
30/08:00pm 31.8 30.6 11.6 29 11.9 N 9 11 5 6 1013.5 1012.5 0.0
30/07:30pm 32.5 31.2 11.1 27 12.6 N 9 11 5 6 1013.2 1012.1 0.0
30/07:00pm 33.4 32.1 11.3 26 13.1 N 9 13 5 7 1012.9 1011.8 0.0
30/06:30pm 33.2 33.4 10.5 25 13.3 CALM 0 0 0 0 1012.5 1011.4 0.0
30/06:00pm 34.8 33.7 10.6 23 14.2 N 7 11 4 6 1012.0 1010.9 0.0
30/05:30pm 35.4 34.1 11.1 23 14.5 NNE 9 15 5 8 1011.8 1010.7 0.0
30/05:00pm 36.2 33.7 9.7 20 15.5 NE 13 19 7 10 1011.5 1010.4 0.0
30/04:30pm 35.7 33.9 9.3 20 15.3 ENE 9 15 5 8 1011.4 1010.3 0.0
30/04:00pm 36.6 33.4 10.0 20 15.6 ENE 17 26 9 14 1011.5 1010.4 0.0
30/03:30pm 36.2 34.3 8.9 19 15.8 NE 9 15 5 8 1011.7 1010.6 0.0
30/03:00pm 37.3 35.4 9.0 18 16.4 SE 9 20 5 11 1011.8 1010.7 0.0
30/02:30pm 36.5 34.4 8.4 18 16.1 WSW 9 22 5 12 1012.3 1011.2 0.0
30/02:00pm 35.5 33.0 8.3 19 15.5 E 11 15 6 8 1012.7 1011.6 0.0
30/01:30pm 36.6 34.1 8.4 18 16.2 ESE 11 20 6 11 1013.1 1012.0 0.0
30/01:00pm 35.7 34.2 9.3 20 15.3 N 7 13 4 7 1013.7 1012.7 0.0
30/12:30pm 35.9 32.0 9.4 20 15.4 E 20 30 11 16 1014.2 1013.2 0.0
30/12:00pm 34.3 32.1 9.5 22 14.3 NNE 11 19 6 10 1014.8 1013.8 0.0
30/11:30am 34.8 32.5 10.6 23 14.2 NNE 13 24 7 13 1015.6 1014.5 0.0
30/11:00am 33.7 31.7 10.3 24 13.6 NNE 11 22 6 12 1016.1 1015.0 0.0
30/10:30am 33.5 31.9 11.4 26 13.1 NNE 11 19 6 10 1016.4 1015.3 0.0
30/10:00am 32.5 31.1 12.2 29 12.1 NNW 11 20 6 11 1016.7 1015.6 0.0
30/09:30am 31.8 31.1 14.4 34 10.7 NNW 11 20 6 11 1016.8 1015.7 0.0
30/09:00am 30.3 29.6 14.4 38 9.7 NNW 11 17 6 9 1016.8 1015.7 0.0
30/08:30am 29.0 29.0 16.2 46 8.0 NW 11 15 6 8 1016.7 1015.6 0.0
30/08:00am 27.2 27.8 17.7 56 6.0 NNW 11 15 6 8 1016.6 1015.5 0.0
30/07:30am 25.7 27.0 18.4 64 4.7 NNW 9 13 5 7 1016.3 1015.2 0.0
30/07:00am 23.9 25.1 17.4 67 4.1 N 7 11 4 6 1016.0 1014.9 0.0
30/06:30am 22.5 23.7 16.8 70 3.5 NNE 6 7 3 4 1015.6 1014.5 0.0
30/06:00am 21.6 23.6 16.1 71 3.3 CALM 0 7 0 4 1015.2 1014.1 0.0
30/05:30am 22.7 24.2 16.7 69 3.7 N 4 7 2 4 1014.8 1013.8 0.0
30/05:00am 23.0 23.6 16.8 68 3.8 N 9 11 5 6 1014.3 1013.3 0.0
30/04:30am 23.4 23.6 16.7 66 4.1 N 11 13 6 7 1013.9 1012.9 0.0
30/04:00am 23.7 23.9 16.7 65 4.3 NNE 11 15 6 8 1013.6 1012.6 0.0
30/03:30am 24.1 24.6 16.6 63 4.6 N 9 13 5 7 1013.4 1012.3 0.0
30/03:00am 24.7 25.7 16.9 62 4.9 N 7 11 4 6 1013.3 1012.2 0.0
30/02:30am 25.1 25.7 16.8 60 5.2 N 9 11 5 6 1013.3 1012.2 0.0
30/02:00am 25.6 26.5 16.7 58 5.5 N 7 9 4 5 1013.5 1012.5 0.0
30/01:30am 25.9 26.5 16.7 57 5.7 N 9 11 5 6 1013.5 1012.5 0.0
30/01:00am 26.0 26.0 15.1 51 6.6 N 9 11 5 6 1013.6 1012.6 0.0
30/12:30am 27.0 26.4 15.7 50 7.0 N 13 17 7 9 1013.8 1012.8 0.0
30/12:00am 27.3 26.1 14.0 44 8.0 N 13 17 7 9 1013.8 1012.8 0.0
 
Date/Time
CST
Temp
°C
App
Temp
°C
Dew
Point
Rel
Hum
%
Delta-T
°C
Wind Press
QNH
hPa
Press
MSL
hPa
Rain
since 9 am
mm
Dir
 
Spd
km/h
Gust
km/h
Spd
kts
Gust
kts
29/11:30pm 27.9 26.3 12.7 39 9.0 N 13 19 7 10 1013.8 1012.8 0.0
29/11:00pm 28.0 26.0 11.5 35 9.6 N 13 17 7 9 1013.9 1012.9 0.0
29/10:30pm 27.7 26.2 10.4 34 9.8 N 9 13 5 7 1013.8 1012.8 0.0
29/10:00pm 28.4 26.4 10.1 32 10.4 N 11 13 6 7 1013.7 1012.7 0.0
29/09:30pm 28.7 26.8 10.4 32 10.5 NNE 11 13 6 7 1013.6 1012.6 0.0
29/09:00pm 29.4 27.9 10.5 31 10.8 N 9 13 5 7 1013.4 1012.3 0.0
29/08:30pm 30.1 28.6 10.6 30 11.2 N 9 13 5 7 1013.1 1012.0 0.0
29/08:00pm 30.6 29.1 10.5 29 11.6 N 9 11 5 6 1012.8 1011.7 0.0
29/07:30pm 31.4 29.9 10.7 28 12.0 N 9 13 5 7 1012.5 1011.4 0.0
29/07:00pm 32.4 30.5 10.4 26 12.8 N 11 15 6 8 1012.1 1011.0 0.0
29/06:30pm 33.4 31.8 10.1 24 13.5 N 9 17 5 9 1011.8 1010.7 0.0
29/06:00pm 34.5 32.6 6.7 18 15.4 N 6 9 3 5 1011.4 1010.3 0.0
29/05:30pm 36.0 35.1 6.2 16 16.5 CALM 0 0 0 0 1011.0 1009.9 0.0
29/05:00pm 35.6 33.0 5.9 16 16.3 NNW 9 13 5 7 1010.8 1009.7 0.0
29/04:30pm 36.3 34.1 5.5 15 16.9 WNW 6 9 3 5 1010.7 1009.6 0.0
29/04:00pm 36.0 32.5 5.3 15 16.8 N 13 20 7 11 1010.4 1009.4 0.0
29/03:30pm 36.2 33.3 6.4 16 16.6 SSW 11 17 6 9 1010.5 1009.5 0.0
29/03:00pm 36.9 34.1 7.0 16 16.8 E 11 20 6 11 1010.9 1009.8 0.0
29/02:30pm 36.4 32.6 5.6 15 16.9 N 15 20 8 11 1011.3 1010.2 0.0
29/02:00pm 36.0 32.5 5.3 15 16.8 N 13 26 7 14 1011.6 1010.5 0.0
29/01:30pm 35.1 32.4 5.5 16 16.1 WNW 9 13 5 7 1012.0 1010.9 0.0
29/01:00pm 35.4 33.3 5.8 16 16.2 NNW 6 20 3 11 1012.5 1011.4 0.0
29/12:30pm 35.6 33.5 6.8 17 16.1 NE 7 15 4 8 1013.0 1011.9 0.0
29/12:00pm 34.2 31.3 6.5 18 15.3 N 11 20 6 11 1013.5 1012.5 0.0
29/11:30am 34.2 30.2 6.5 18 15.3 NNE 17 24 9 13 1014.0 1013.0 0.0
29/11:00am 33.3 29.5 5.8 18 14.9 N 15 26 8 14 1014.4 1013.4 0.0
29/10:30am 33.5 31.0 6.7 19 14.8 NE 9 17 5 9 1014.8 1013.8 0.0
29/10:00am 32.6 31.0 8.8 23 13.5 NE 7 15 4 8 1015.0 1014.0 0.0
29/09:30am 30.8 29.8 10.2 28 11.8 NNW 6 9 3 5 1015.3 1014.2 0.0
29/09:00am 29.0 27.7 11.1 33 10.4 NNW 9 13 5 7 1015.4 1014.3 0.0
29/08:30am 27.3 26.6 12.1 39 8.9 NW 7 11 4 6 1015.4 1014.3 0.0
29/08:00am 24.1 22.7 9.7 40 7.9 NW 7 11 4 6 1015.4 1014.3 0.0
29/07:30am 22.1 21.2 11.2 50 6.1 NW 7 11 4 6 1015.3 1014.2 0.0
29/07:00am 18.4 16.5 0.5 30 8.0 CALM 0 0 0 0 1014.9 1013.9 0.0
29/06:30am 17.1 14.1 0.7 33 7.3 N 6 7 3 4 1014.6 1013.6 0.0
29/06:00am 15.4 13.2 -1.2 32 6.9 CALM 0 0 0 0 1014.2 1013.2 0.0
29/05:30am 16.9 15.2 2.1 37 6.7 CALM 0 0 0 0 1013.9 1012.9 0.0
29/05:00am 17.0 15.1 0.6 33 7.2 CALM 0 0 0 0 1013.6 1012.6 0.0
29/04:30am 16.7 14.1 -1.9 28 7.8 N 2 6 1 3 1013.3 1012.2 0.0
29/04:00am 16.6 14.0 -2.0 28 7.7 N 2 6 1 3 1013.3 1012.2 0.0
29/03:30am 16.6 13.3 -4.6 23 8.3 N 4 7 2 4 1013.1 1012.0 0.0
29/03:00am 18.0 15.3 -2.3 25 8.5 NNW 2 7 1 4 1013.2 1012.1 0.0
29/02:30am 17.0 14.4 -4.8 22 8.6 CALM 0 6 0 3 1013.5 1012.5 0.0
29/02:00am 18.6 16.1 -4.1 21 9.2 CALM 0 0 0 0 1013.8 1012.8 0.0
29/01:30am 19.2 15.5 -4.3 20 9.6 N 6 7 3 4 1013.8 1012.8 0.0
29/01:00am 18.7 15.1 -3.4 22 9.1 WSW 6 7 3 4 1014.0 1013.0 0.0
29/12:30am 22.0 17.7 -4.9 16 11.1 NE 9 13 5 7 1014.2 1013.2 0.0
29/12:00am 20.4 17.8 -4.7 18 10.3 CALM 0 0 0 0 1014.0 1013.0 0.0
 
Date/Time
CST
Temp
°C
App
Temp
°C
Dew
Point
Rel
Hum
%
Delta-T
°C
Wind Press
QNH
hPa
Press
MSL
hPa
Rain
since 9 am
mm
Dir
 
Spd
km/h
Gust
km/h
Spd
kts
Gust
kts
28/11:30pm 21.4 17.6 -5.4 16 10.9 SSW 6 7 3 4 1014.3 1013.3 0.0
28/11:00pm 22.2 18.3 -4.8 16 11.2 S 7 9 4 5 1014.4 1013.4 0.0
28/10:30pm 22.5 19.3 -3.7 17 11.1 S 4 13 2 7 1014.4 1013.4 0.0
28/10:00pm 24.0 20.6 -5.1 14 12.2 ESE 4 6 2 3 1014.4 1013.4 0.0
28/09:30pm 24.9 21.2 -4.4 14 12.5 SE 6 7 3 4 1014.3 1013.3 0.0
28/09:00pm 24.8 20.9 -4.5 14 12.5 S 7 7 4 4 1014.2 1013.2 0.0
28/08:30pm 25.4 21.8 -4.0 14 12.7 S 6 7 3 4 1013.9 1012.9 0.0
28/08:00pm 26.6 23.0 -4.0 13 13.4 S 6 7 3 4 1013.7 1012.7 0.0
28/07:30pm 27.3 23.3 -5.7 11 14.1 S 7 9 4 5 1013.4 1012.3 0.0

Other Formats:

Comma delimited format used in spreadsheet applications
http://www.bom.gov.au/fwo/IDD60801/IDD60801.94255.axf

JavaScript Object Notation format (JSON) in row-major order
http://www.bom.gov.au/fwo/IDD60801/IDD60801.94255.json